sensor_id;sensor_type;location;lat;lon;timestamp;P1;durP1;ratioP1;P2;durP2;ratioP2
17604;SDS011;8921;50.964;6.800;2022-08-03T00:01:17;7.23;;;2.77;;
17604;SDS011;8921;50.964;6.800;2022-08-03T00:03:45;12.67;;;3.03;;
17604;SDS011;8921;50.964;6.800;2022-08-03T00:06:13;5.60;;;2.50;;
17604;SDS011;8921;50.964;6.800;2022-08-03T00:08:41;9.30;;;2.97;;
17604;SDS011;8921;50.964;6.800;2022-08-03T00:11:10;7.60;;;2.50;;
17604;SDS011;8921;50.964;6.800;2022-08-03T00:13:38;7.40;;;3.07;;
17604;SDS011;8921;50.964;6.800;2022-08-03T00:16:06;6.00;;;3.30;;
17604;SDS011;8921;50.964;6.800;2022-08-03T00:18:35;7.17;;;3.27;;
17604;SDS011;8921;50.964;6.800;2022-08-03T00:21:03;9.50;;;2.27;;
17604;SDS011;8921;50.964;6.800;2022-08-03T00:23:31;9.30;;;3.60;;
17604;SDS011;8921;50.964;6.800;2022-08-03T00:26:00;7.00;;;3.20;;
17604;SDS011;8921;50.964;6.800;2022-08-03T00:28:28;7.87;;;3.33;;
17604;SDS011;8921;50.964;6.800;2022-08-03T00:30:56;8.87;;;3.33;;
17604;SDS011;8921;50.964;6.800;2022-08-03T00:33:24;14.33;;;3.83;;
17604;SDS011;8921;50.964;6.800;2022-08-03T00:35:53;6.40;;;3.20;;
17604;SDS011;8921;50.964;6.800;2022-08-03T00:38:21;9.23;;;3.33;;
17604;SDS011;8921;50.964;6.800;2022-08-03T00:40:49;7.13;;;2.63;;
17604;SDS011;8921;50.964;6.800;2022-08-03T00:43:18;7.43;;;3.20;;
17604;SDS011;8921;50.964;6.800;2022-08-03T00:51:05;8.97;;;3.40;;
17604;SDS011;8921;50.964;6.800;2022-08-03T00:53:34;8.50;;;3.57;;
17604;SDS011;8921;50.964;6.800;2022-08-03T00:56:02;7.60;;;3.67;;
17604;SDS011;8921;50.964;6.800;2022-08-03T00:58:30;9.23;;;3.87;;
17604;SDS011;8921;50.964;6.800;2022-08-03T01:00:59;4.70;;;2.77;;
17604;SDS011;8921;50.964;6.800;2022-08-03T01:03:27;5.77;;;2.97;;
17604;SDS011;8921;50.964;6.800;2022-08-03T01:08:52;6.67;;;3.30;;
17604;SDS011;8921;50.964;6.800;2022-08-03T01:11:23;6.67;;;2.93;;
17604;SDS011;8921;50.964;6.800;2022-08-03T01:14:06;6.87;;;2.93;;
17604;SDS011;8921;50.964;6.800;2022-08-03T01:16:36;4.90;;;2.80;;
17604;SDS011;8921;50.964;6.800;2022-08-03T01:22:50;4.60;;;2.60;;
17604;SDS011;8921;50.964;6.800;2022-08-03T01:25:02;6.43;;;4.00;;
17604;SDS011;8921;50.964;6.800;2022-08-03T01:27:28;6.70;;;3.27;;
17604;SDS011;8921;50.964;6.800;2022-08-03T01:32:41;7.03;;;3.10;;
17604;SDS011;8921;50.964;6.800;2022-08-03T01:35:09;6.10;;;3.00;;
17604;SDS011;8921;50.964;6.800;2022-08-03T01:40:23;7.10;;;2.80;;
17604;SDS011;8921;50.964;6.800;2022-08-03T01:42:51;7.23;;;3.77;;
17604;SDS011;8921;50.964;6.800;2022-08-03T01:45:19;5.43;;;2.77;;
17604;SDS011;8921;50.964;6.800;2022-08-03T01:47:48;5.10;;;2.90;;
17604;SDS011;8921;50.964;6.800;2022-08-03T01:50:18;6.50;;;3.87;;
17604;SDS011;8921;50.964;6.800;2022-08-03T01:52:44;6.30;;;3.40;;
17604;SDS011;8921;50.964;6.800;2022-08-03T01:55:13;7.50;;;3.40;;
17604;SDS011;8921;50.964;6.800;2022-08-03T01:57:41;5.40;;;2.90;;
17604;SDS011;8921;50.964;6.800;2022-08-03T02:00:09;9.83;;;3.73;;
17604;SDS011;8921;50.964;6.800;2022-08-03T02:02:38;5.03;;;2.80;;
17604;SDS011;8921;50.964;6.800;2022-08-03T02:05:06;7.40;;;3.40;;
17604;SDS011;8921;50.964;6.800;2022-08-03T02:07:34;7.00;;;3.50;;
17604;SDS011;8921;50.964;6.800;2022-08-03T02:10:03;6.13;;;3.23;;
17604;SDS011;8921;50.964;6.800;2022-08-03T02:12:31;9.57;;;3.30;;
17604;SDS011;8921;50.964;6.800;2022-08-03T02:14:59;6.70;;;3.70;;
17604;SDS011;8921;50.964;6.800;2022-08-03T02:17:28;6.90;;;2.77;;
17604;SDS011;8921;50.964;6.800;2022-08-03T02:19:56;11.93;;;3.10;;
17604;SDS011;8921;50.964;6.800;2022-08-03T02:22:24;6.23;;;3.20;;
17604;SDS011;8921;50.964;6.800;2022-08-03T02:24:52;7.20;;;3.30;;
17604;SDS011;8921;50.964;6.800;2022-08-03T02:27:21;9.77;;;4.40;;
17604;SDS011;8921;50.964;6.800;2022-08-03T02:29:54;7.70;;;3.87;;
17604;SDS011;8921;50.964;6.800;2022-08-03T02:32:24;8.63;;;3.97;;
17604;SDS011;8921;50.964;6.800;2022-08-03T02:34:49;15.27;;;3.87;;
17604;SDS011;8921;50.964;6.800;2022-08-03T02:37:18;7.40;;;3.50;;
17604;SDS011;8921;50.964;6.800;2022-08-03T02:39:45;6.70;;;3.70;;
17604;SDS011;8921;50.964;6.800;2022-08-03T02:42:14;8.50;;;3.97;;
17604;SDS011;8921;50.964;6.800;2022-08-03T02:44:42;14.87;;;3.63;;
17604;SDS011;8921;50.964;6.800;2022-08-03T02:47:10;7.20;;;3.60;;
17604;SDS011;8921;50.964;6.800;2022-08-03T02:49:38;7.97;;;3.37;;
17604;SDS011;8921;50.964;6.800;2022-08-03T02:52:09;6.80;;;3.97;;
17604;SDS011;8921;50.964;6.800;2022-08-03T02:54:38;7.67;;;3.77;;
17604;SDS011;8921;50.964;6.800;2022-08-03T02:57:06;6.63;;;3.73;;
17604;SDS011;8921;50.964;6.800;2022-08-03T02:59:34;6.73;;;3.50;;
17604;SDS011;8921;50.964;6.800;2022-08-03T03:02:03;6.13;;;2.93;;
17604;SDS011;8921;50.964;6.800;2022-08-03T03:04:31;5.93;;;3.50;;
17604;SDS011;8921;50.964;6.800;2022-08-03T03:06:59;6.30;;;4.00;;
17604;SDS011;8921;50.964;6.800;2022-08-03T03:09:27;18.57;;;4.13;;
17604;SDS011;8921;50.964;6.800;2022-08-03T03:11:56;6.83;;;4.10;;
17604;SDS011;8921;50.964;6.800;2022-08-03T03:14:24;10.33;;;5.40;;
17604;SDS011;8921;50.964;6.800;2022-08-03T03:16:52;10.83;;;5.73;;
17604;SDS011;8921;50.964;6.800;2022-08-03T03:19:20;8.40;;;4.00;;
17604;SDS011;8921;50.964;6.800;2022-08-03T03:21:49;5.83;;;3.60;;
17604;SDS011;8921;50.964;6.800;2022-08-03T03:24:17;10.30;;;4.37;;
17604;SDS011;8921;50.964;6.800;2022-08-03T03:26:46;5.60;;;3.40;;
17604;SDS011;8921;50.964;6.800;2022-08-03T03:29:14;8.50;;;4.00;;
17604;SDS011;8921;50.964;6.800;2022-08-03T03:31:42;5.83;;;3.60;;
17604;SDS011;8921;50.964;6.800;2022-08-03T03:34:10;6.57;;;4.00;;
17604;SDS011;8921;50.964;6.800;2022-08-03T03:36:38;6.97;;;3.97;;
17604;SDS011;8921;50.964;6.800;2022-08-03T03:39:07;6.90;;;3.93;;
17604;SDS011;8921;50.964;6.800;2022-08-03T03:41:35;10.40;;;5.30;;
17604;SDS011;8921;50.964;6.800;2022-08-03T03:44:03;8.87;;;4.73;;
17604;SDS011;8921;50.964;6.800;2022-08-03T03:46:31;12.73;;;5.40;;
17604;SDS011;8921;50.964;6.800;2022-08-03T03:49:00;6.30;;;3.43;;
17604;SDS011;8921;50.964;6.800;2022-08-03T03:51:28;6.50;;;3.33;;
17604;SDS011;8921;50.964;6.800;2022-08-03T03:53:57;7.50;;;3.20;;
17604;SDS011;8921;50.964;6.800;2022-08-03T03:56:25;5.70;;;2.90;;
17604;SDS011;8921;50.964;6.800;2022-08-03T03:58:53;6.40;;;3.43;;
17604;SDS011;8921;50.964;6.800;2022-08-03T04:01:21;6.90;;;3.93;;
17604;SDS011;8921;50.964;6.800;2022-08-03T04:03:49;7.37;;;4.17;;
17604;SDS011;8921;50.964;6.800;2022-08-03T04:06:18;8.03;;;4.37;;
17604;SDS011;8921;50.964;6.800;2022-08-03T04:09:05;7.27;;;4.13;;
17604;SDS011;8921;50.964;6.800;2022-08-03T04:11:52;7.00;;;3.50;;
17604;SDS011;8921;50.964;6.800;2022-08-03T04:14:22;5.80;;;3.20;;
17604;SDS011;8921;50.964;6.800;2022-08-03T04:16:49;7.40;;;4.03;;
17604;SDS011;8921;50.964;6.800;2022-08-03T04:19:18;8.77;;;3.97;;
17604;SDS011;8921;50.964;6.800;2022-08-03T04:21:46;10.70;;;4.03;;
17604;SDS011;8921;50.964;6.800;2022-08-03T04:24:13;10.87;;;4.10;;
17604;SDS011;8921;50.964;6.800;2022-08-03T04:26:41;9.67;;;4.00;;
17604;SDS011;8921;50.964;6.800;2022-08-03T04:29:09;9.10;;;4.83;;
17604;SDS011;8921;50.964;6.800;2022-08-03T04:31:37;11.43;;;3.90;;
17604;SDS011;8921;50.964;6.800;2022-08-03T04:34:06;8.07;;;4.03;;
17604;SDS011;8921;50.964;6.800;2022-08-03T04:36:36;9.20;;;4.20;;
17604;SDS011;8921;50.964;6.800;2022-08-03T04:39:35;10.27;;;4.50;;
17604;SDS011;8921;50.964;6.800;2022-08-03T04:41:45;7.80;;;4.53;;
17604;SDS011;8921;50.964;6.800;2022-08-03T04:44:13;21.17;;;5.73;;
17604;SDS011;8921;50.964;6.800;2022-08-03T04:46:42;7.60;;;4.60;;
17604;SDS011;8921;50.964;6.800;2022-08-03T04:49:10;16.30;;;5.13;;
17604;SDS011;8921;50.964;6.800;2022-08-03T04:51:38;12.90;;;4.83;;
17604;SDS011;8921;50.964;6.800;2022-08-03T04:54:10;8.87;;;4.40;;
17604;SDS011;8921;50.964;6.800;2022-08-03T04:56:35;7.70;;;4.20;;
17604;SDS011;8921;50.964;6.800;2022-08-03T04:59:03;9.07;;;4.33;;
17604;SDS011;8921;50.964;6.800;2022-08-03T05:01:31;6.83;;;3.83;;
17604;SDS011;8921;50.964;6.800;2022-08-03T05:04:00;8.77;;;3.90;;
17604;SDS011;8921;50.964;6.800;2022-08-03T05:06:28;15.53;;;3.60;;
17604;SDS011;8921;50.964;6.800;2022-08-03T05:08:56;8.80;;;5.00;;
17604;SDS011;8921;50.964;6.800;2022-08-03T05:11:24;11.20;;;5.00;;
17604;SDS011;8921;50.964;6.800;2022-08-03T05:13:53;10.30;;;4.37;;
17604;SDS011;8921;50.964;6.800;2022-08-03T05:16:21;8.47;;;3.80;;
17604;SDS011;8921;50.964;6.800;2022-08-03T05:18:49;8.40;;;3.97;;
17604;SDS011;8921;50.964;6.800;2022-08-03T05:21:18;11.27;;;5.20;;
17604;SDS011;8921;50.964;6.800;2022-08-03T05:23:46;7.00;;;3.90;;
17604;SDS011;8921;50.964;6.800;2022-08-03T05:26:14;6.53;;;3.93;;
17604;SDS011;8921;50.964;6.800;2022-08-03T05:28:42;8.63;;;3.87;;
17604;SDS011;8921;50.964;6.800;2022-08-03T05:31:11;7.23;;;3.70;;
17604;SDS011;8921;50.964;6.800;2022-08-03T05:33:39;9.70;;;3.70;;
17604;SDS011;8921;50.964;6.800;2022-08-03T05:36:07;6.33;;;3.67;;
17604;SDS011;8921;50.964;6.800;2022-08-03T05:41:07;9.07;;;4.13;;
17604;SDS011;8921;50.964;6.800;2022-08-03T05:43:35;8.23;;;3.40;;
17604;SDS011;8921;50.964;6.800;2022-08-03T05:46:03;10.60;;;3.87;;
17604;SDS011;8921;50.964;6.800;2022-08-03T05:48:32;6.00;;;3.57;;
17604;SDS011;8921;50.964;6.800;2022-08-03T05:51:00;8.20;;;4.60;;
17604;SDS011;8921;50.964;6.800;2022-08-03T05:53:30;8.50;;;4.13;;
17604;SDS011;8921;50.964;6.800;2022-08-03T05:55:56;6.70;;;3.53;;
17604;SDS011;8921;50.964;6.800;2022-08-03T05:58:25;16.17;;;4.53;;
17604;SDS011;8921;50.964;6.800;2022-08-03T06:00:53;6.97;;;3.30;;
17604;SDS011;8921;50.964;6.800;2022-08-03T06:03:21;6.73;;;3.80;;
17604;SDS011;8921;50.964;6.800;2022-08-03T06:05:50;8.13;;;3.80;;
17604;SDS011;8921;50.964;6.800;2022-08-03T06:08:18;5.20;;;3.27;;
17604;SDS011;8921;50.964;6.800;2022-08-03T06:10:46;9.30;;;4.00;;
17604;SDS011;8921;50.964;6.800;2022-08-03T06:13:14;18.63;;;3.77;;
17604;SDS011;8921;50.964;6.800;2022-08-03T06:15:43;9.83;;;3.63;;
17604;SDS011;8921;50.964;6.800;2022-08-03T06:18:11;9.53;;;4.43;;
17604;SDS011;8921;50.964;6.800;2022-08-03T06:20:39;6.50;;;4.03;;
17604;SDS011;8921;50.964;6.800;2022-08-03T06:23:08;6.90;;;3.20;;
17604;SDS011;8921;50.964;6.800;2022-08-03T06:25:36;11.30;;;3.40;;
17604;SDS011;8921;50.964;6.800;2022-08-03T06:28:04;9.50;;;4.43;;
17604;SDS011;8921;50.964;6.800;2022-08-03T06:30:33;7.00;;;4.23;;
17604;SDS011;8921;50.964;6.800;2022-08-03T06:33:01;5.70;;;3.40;;
17604;SDS011;8921;50.964;6.800;2022-08-03T06:35:29;10.80;;;4.47;;
17604;SDS011;8921;50.964;6.800;2022-08-03T06:37:58;12.13;;;3.90;;
17604;SDS011;8921;50.964;6.800;2022-08-03T06:40:26;10.63;;;3.50;;
17604;SDS011;8921;50.964;6.800;2022-08-03T06:42:54;7.53;;;3.80;;
17604;SDS011;8921;50.964;6.800;2022-08-03T06:45:22;10.60;;;3.60;;
17604;SDS011;8921;50.964;6.800;2022-08-03T06:50:31;8.37;;;4.30;;
17604;SDS011;8921;50.964;6.800;2022-08-03T06:53:00;8.20;;;3.73;;
17604;SDS011;8921;50.964;6.800;2022-08-03T06:55:28;10.40;;;4.40;;
17604;SDS011;8921;50.964;6.800;2022-08-03T06:57:56;11.10;;;4.00;;
17604;SDS011;8921;50.964;6.800;2022-08-03T07:00:24;13.33;;;5.43;;
17604;SDS011;8921;50.964;6.800;2022-08-03T07:02:53;8.50;;;3.20;;
17604;SDS011;8921;50.964;6.800;2022-08-03T07:05:21;17.63;;;3.43;;
17604;SDS011;8921;50.964;6.800;2022-08-03T07:07:49;7.17;;;4.10;;
17604;SDS011;8921;50.964;6.800;2022-08-03T07:10:17;7.40;;;3.10;;
17604;SDS011;8921;50.964;6.800;2022-08-03T07:12:46;9.00;;;3.57;;
17604;SDS011;8921;50.964;6.800;2022-08-03T07:15:14;10.43;;;3.87;;
17604;SDS011;8921;50.964;6.800;2022-08-03T07:17:42;8.20;;;3.50;;
17604;SDS011;8921;50.964;6.800;2022-08-03T07:20:10;8.30;;;3.80;;
17604;SDS011;8921;50.964;6.800;2022-08-03T07:22:39;8.50;;;3.70;;
17604;SDS011;8921;50.964;6.800;2022-08-03T07:25:07;14.20;;;4.47;;
17604;SDS011;8921;50.964;6.800;2022-08-03T07:27:35;15.30;;;4.10;;
17604;SDS011;8921;50.964;6.800;2022-08-03T07:30:05;9.57;;;3.40;;
17604;SDS011;8921;50.964;6.800;2022-08-03T07:32:32;9.23;;;2.90;;
17604;SDS011;8921;50.964;6.800;2022-08-03T07:35:01;11.13;;;3.67;;
17604;SDS011;8921;50.964;6.800;2022-08-03T07:37:29;8.30;;;3.10;;
17604;SDS011;8921;50.964;6.800;2022-08-03T07:40:00;17.17;;;3.60;;
17604;SDS011;8921;50.964;6.800;2022-08-03T07:42:28;7.50;;;3.80;;
17604;SDS011;8921;50.964;6.800;2022-08-03T07:44:57;14.43;;;3.90;;
17604;SDS011;8921;50.964;6.800;2022-08-03T07:47:25;8.33;;;3.40;;
17604;SDS011;8921;50.964;6.800;2022-08-03T07:49:53;12.93;;;2.83;;
17604;SDS011;8921;50.964;6.800;2022-08-03T07:52:21;14.30;;;3.10;;
17604;SDS011;8921;50.964;6.800;2022-08-03T07:55:08;6.67;;;3.00;;
17604;SDS011;8921;50.964;6.800;2022-08-03T07:57:37;9.80;;;3.50;;
17604;SDS011;8921;50.964;6.800;2022-08-03T08:00:06;8.53;;;2.80;;
17604;SDS011;8921;50.964;6.800;2022-08-03T08:02:36;8.23;;;2.57;;
17604;SDS011;8921;50.964;6.800;2022-08-03T08:05:04;5.40;;;2.57;;
17604;SDS011;8921;50.964;6.800;2022-08-03T08:07:33;8.37;;;2.40;;
17604;SDS011;8921;50.964;6.800;2022-08-03T08:10:01;10.33;;;2.30;;
17604;SDS011;8921;50.964;6.800;2022-08-03T08:12:29;23.90;;;3.80;;
17604;SDS011;8921;50.964;6.800;2022-08-03T08:14:57;9.13;;;3.40;;
17604;SDS011;8921;50.964;6.800;2022-08-03T08:17:26;11.17;;;3.03;;
17604;SDS011;8921;50.964;6.800;2022-08-03T08:19:54;11.23;;;3.13;;
17604;SDS011;8921;50.964;6.800;2022-08-03T08:22:22;10.53;;;2.10;;
17604;SDS011;8921;50.964;6.800;2022-08-03T08:24:50;9.10;;;2.70;;
17604;SDS011;8921;50.964;6.800;2022-08-03T08:27:19;6.63;;;2.60;;
17604;SDS011;8921;50.964;6.800;2022-08-03T08:29:47;8.93;;;2.20;;
17604;SDS011;8921;50.964;6.800;2022-08-03T08:34:16;10.43;;;3.20;;
17604;SDS011;8921;50.964;6.800;2022-08-03T08:36:47;10.73;;;3.00;;
17604;SDS011;8921;50.964;6.800;2022-08-03T08:39:16;5.60;;;2.33;;
17604;SDS011;8921;50.964;6.800;2022-08-03T08:41:44;7.70;;;2.20;;
17604;SDS011;8921;50.964;6.800;2022-08-03T08:44:12;13.13;;;3.93;;
17604;SDS011;8921;50.964;6.800;2022-08-03T08:46:40;11.50;;;3.10;;
17604;SDS011;8921;50.964;6.800;2022-08-03T08:49:09;8.53;;;5.67;;
17604;SDS011;8921;50.964;6.800;2022-08-03T08:51:37;12.33;;;3.37;;
17604;SDS011;8921;50.964;6.800;2022-08-03T08:54:06;5.93;;;2.20;;
17604;SDS011;8921;50.964;6.800;2022-08-03T08:56:34;8.60;;;3.07;;
17604;SDS011;8921;50.964;6.800;2022-08-03T08:59:02;15.93;;;2.93;;
17604;SDS011;8921;50.964;6.800;2022-08-03T09:01:30;8.60;;;2.60;;
17604;SDS011;8921;50.964;6.800;2022-08-03T09:03:59;4.20;;;2.10;;
17604;SDS011;8921;50.964;6.800;2022-08-03T09:06:27;11.53;;;2.00;;
17604;SDS011;8921;50.964;6.800;2022-08-03T09:08:55;11.80;;;3.53;;
17604;SDS011;8921;50.964;6.800;2022-08-03T09:11:24;15.33;;;3.80;;
17604;SDS011;8921;50.964;6.800;2022-08-03T09:13:52;7.67;;;3.37;;
17604;SDS011;8921;50.964;6.800;2022-08-03T09:16:21;12.20;;;3.03;;
17604;SDS011;8921;50.964;6.800;2022-08-03T09:18:52;6.97;;;2.50;;
17604;SDS011;8921;50.964;6.800;2022-08-03T09:21:23;8.57;;;2.80;;
17604;SDS011;8921;50.964;6.800;2022-08-03T09:23:57;5.97;;;2.20;;
17604;SDS011;8921;50.964;6.800;2022-08-03T09:26:26;4.87;;;2.10;;
17604;SDS011;8921;50.964;6.800;2022-08-03T09:29:00;3.90;;;2.20;;
17604;SDS011;8921;50.964;6.800;2022-08-03T09:31:31;9.13;;;2.50;;
17604;SDS011;8921;50.964;6.800;2022-08-03T09:34:11;7.83;;;2.50;;
17604;SDS011;8921;50.964;6.800;2022-08-03T09:36:37;4.77;;;1.67;;
17604;SDS011;8921;50.964;6.800;2022-08-03T09:39:17;5.00;;;2.63;;
17604;SDS011;8921;50.964;6.800;2022-08-03T09:41:46;6.53;;;2.20;;
17604;SDS011;8921;50.964;6.800;2022-08-03T09:44:15;3.40;;;1.60;;
17604;SDS011;8921;50.964;6.800;2022-08-03T09:46:47;5.83;;;2.20;;
17604;SDS011;8921;50.964;6.800;2022-08-03T09:49:15;8.73;;;1.80;;
17604;SDS011;8921;50.964;6.800;2022-08-03T09:51:43;3.87;;;1.90;;
17604;SDS011;8921;50.964;6.800;2022-08-03T09:54:11;5.23;;;1.47;;
17604;SDS011;8921;50.964;6.800;2022-08-03T09:56:43;4.87;;;1.53;;
17604;SDS011;8921;50.964;6.800;2022-08-03T09:59:11;3.70;;;2.03;;
17604;SDS011;8921;50.964;6.800;2022-08-03T10:01:50;7.80;;;2.00;;
17604;SDS011;8921;50.964;6.800;2022-08-03T10:04:19;6.00;;;1.73;;
17604;SDS011;8921;50.964;6.800;2022-08-03T10:07:03;4.43;;;3.33;;
17604;SDS011;8921;50.964;6.800;2022-08-03T10:09:36;6.30;;;2.20;;
17604;SDS011;8921;50.964;6.800;2022-08-03T10:12:08;7.47;;;2.20;;
17604;SDS011;8921;50.964;6.800;2022-08-03T10:14:37;8.20;;;2.90;;
17604;SDS011;8921;50.964;6.800;2022-08-03T10:17:06;5.83;;;1.60;;
17604;SDS011;8921;50.964;6.800;2022-08-03T10:19:34;6.87;;;2.10;;
17604;SDS011;8921;50.964;6.800;2022-08-03T10:22:03;5.20;;;2.10;;
17604;SDS011;8921;50.964;6.800;2022-08-03T10:24:32;6.60;;;2.07;;
17604;SDS011;8921;50.964;6.800;2022-08-03T10:27:00;4.10;;;1.77;;
17604;SDS011;8921;50.964;6.800;2022-08-03T10:29:33;5.10;;;2.23;;
17604;SDS011;8921;50.964;6.800;2022-08-03T10:31:58;4.60;;;2.50;;
17604;SDS011;8921;50.964;6.800;2022-08-03T10:34:28;4.30;;;1.90;;
17604;SDS011;8921;50.964;6.800;2022-08-03T10:36:56;9.90;;;3.00;;
17604;SDS011;8921;50.964;6.800;2022-08-03T10:39:24;6.10;;;2.17;;
17604;SDS011;8921;50.964;6.800;2022-08-03T10:41:51;4.50;;;1.70;;
17604;SDS011;8921;50.964;6.800;2022-08-03T10:44:21;3.50;;;1.80;;
17604;SDS011;8921;50.964;6.800;2022-08-03T10:46:48;9.30;;;2.57;;
17604;SDS011;8921;50.964;6.800;2022-08-03T10:49:17;3.97;;;1.70;;
17604;SDS011;8921;50.964;6.800;2022-08-03T10:51:45;12.13;;;2.70;;
17604;SDS011;8921;50.964;6.800;2022-08-03T10:54:36;5.83;;;1.70;;
17604;SDS011;8921;50.964;6.800;2022-08-03T11:00:24;5.60;;;1.80;;
17604;SDS011;8921;50.964;6.800;2022-08-03T11:03:05;5.97;;;2.40;;
17604;SDS011;8921;50.964;6.800;2022-08-03T11:05:33;3.73;;;1.70;;
17604;SDS011;8921;50.964;6.800;2022-08-03T11:08:28;6.37;;;2.10;;
17604;SDS011;8921;50.964;6.800;2022-08-03T11:10:59;9.37;;;2.40;;
17604;SDS011;8921;50.964;6.800;2022-08-03T11:13:24;8.83;;;2.33;;
17604;SDS011;8921;50.964;6.800;2022-08-03T11:15:53;11.83;;;2.63;;
17604;SDS011;8921;50.964;6.800;2022-08-03T11:18:20;7.37;;;2.37;;
17604;SDS011;8921;50.964;6.800;2022-08-03T11:20:52;7.27;;;2.00;;
17604;SDS011;8921;50.964;6.800;2022-08-03T11:23:53;4.30;;;1.93;;
17604;SDS011;8921;50.964;6.800;2022-08-03T11:28:41;4.70;;;2.33;;
17604;SDS011;8921;50.964;6.800;2022-08-03T11:31:51;3.87;;;1.60;;
17604;SDS011;8921;50.964;6.800;2022-08-03T11:34:08;8.63;;;2.23;;
17604;SDS011;8921;50.964;6.800;2022-08-03T11:39:42;3.40;;;1.63;;
17604;SDS011;8921;50.964;6.800;2022-08-03T11:44:54;5.40;;;1.93;;
17604;SDS011;8921;50.964;6.800;2022-08-03T11:47:22;5.57;;;2.43;;
17604;SDS011;8921;50.964;6.800;2022-08-03T11:49:50;5.90;;;1.73;;
17604;SDS011;8921;50.964;6.800;2022-08-03T11:52:18;5.90;;;1.60;;
17604;SDS011;8921;50.964;6.800;2022-08-03T11:54:49;4.40;;;2.10;;
17604;SDS011;8921;50.964;6.800;2022-08-03T11:57:27;4.03;;;1.70;;
17604;SDS011;8921;50.964;6.800;2022-08-03T11:59:43;5.97;;;1.73;;
17604;SDS011;8921;50.964;6.800;2022-08-03T12:02:11;4.03;;;1.73;;
17604;SDS011;8921;50.964;6.800;2022-08-03T12:04:52;5.07;;;2.03;;
17604;SDS011;8921;50.964;6.800;2022-08-03T12:07:23;6.27;;;2.07;;
17604;SDS011;8921;50.964;6.800;2022-08-03T12:10:06;8.30;;;2.13;;
17604;SDS011;8921;50.964;6.800;2022-08-03T12:12:34;5.87;;;1.80;;
17604;SDS011;8921;50.964;6.800;2022-08-03T12:15:03;5.77;;;1.90;;
17604;SDS011;8921;50.964;6.800;2022-08-03T12:17:34;5.33;;;2.00;;
17604;SDS011;8921;50.964;6.800;2022-08-03T12:20:02;4.07;;;1.90;;
17604;SDS011;8921;50.964;6.800;2022-08-03T12:22:33;6.87;;;1.90;;
17604;SDS011;8921;50.964;6.800;2022-08-03T12:25:02;4.37;;;1.80;;
17604;SDS011;8921;50.964;6.800;2022-08-03T12:27:30;4.80;;;2.20;;
17604;SDS011;8921;50.964;6.800;2022-08-03T12:29:58;6.47;;;2.00;;
17604;SDS011;8921;50.964;6.800;2022-08-03T12:32:27;8.70;;;2.20;;
17604;SDS011;8921;50.964;6.800;2022-08-03T12:34:55;5.43;;;2.00;;
17604;SDS011;8921;50.964;6.800;2022-08-03T12:37:25;3.83;;;2.00;;
17604;SDS011;8921;50.964;6.800;2022-08-03T12:39:57;16.63;;;2.33;;
17604;SDS011;8921;50.964;6.800;2022-08-03T12:42:34;6.60;;;2.30;;
17604;SDS011;8921;50.964;6.800;2022-08-03T12:45:21;4.57;;;1.90;;
17604;SDS011;8921;50.964;6.800;2022-08-03T12:47:49;4.27;;;2.03;;
17604;SDS011;8921;50.964;6.800;2022-08-03T12:50:25;4.37;;;2.20;;
17604;SDS011;8921;50.964;6.800;2022-08-03T12:52:50;4.63;;;1.97;;
17604;SDS011;8921;50.964;6.800;2022-08-03T12:55:19;4.30;;;1.90;;
17604;SDS011;8921;50.964;6.800;2022-08-03T12:57:47;4.10;;;2.10;;
17604;SDS011;8921;50.964;6.800;2022-08-03T13:00:16;4.30;;;1.70;;
17604;SDS011;8921;50.964;6.800;2022-08-03T13:02:44;3.83;;;1.80;;
17604;SDS011;8921;50.964;6.800;2022-08-03T13:05:13;3.53;;;1.70;;
17604;SDS011;8921;50.964;6.800;2022-08-03T13:07:41;4.90;;;2.00;;
17604;SDS011;8921;50.964;6.800;2022-08-03T13:10:09;6.50;;;1.80;;
17604;SDS011;8921;50.964;6.800;2022-08-03T13:12:46;3.90;;;1.90;;
17604;SDS011;8921;50.964;6.800;2022-08-03T13:15:14;8.37;;;2.20;;
17604;SDS011;8921;50.964;6.800;2022-08-03T13:17:42;4.17;;;2.27;;
17604;SDS011;8921;50.964;6.800;2022-08-03T13:20:10;3.90;;;2.20;;
17604;SDS011;8921;50.964;6.800;2022-08-03T13:22:39;4.97;;;1.80;;
17604;SDS011;8921;50.964;6.800;2022-08-03T13:25:07;5.17;;;2.20;;
17604;SDS011;8921;50.964;6.800;2022-08-03T13:27:35;4.70;;;2.47;;
17604;SDS011;8921;50.964;6.800;2022-08-03T13:30:06;5.37;;;1.93;;
17604;SDS011;8921;50.964;6.800;2022-08-03T13:32:34;6.60;;;1.83;;
17604;SDS011;8921;50.964;6.800;2022-08-03T13:35:02;4.03;;;2.10;;
17604;SDS011;8921;50.964;6.800;2022-08-03T13:37:31;7.50;;;2.13;;
17604;SDS011;8921;50.964;6.800;2022-08-03T13:39:59;6.20;;;1.80;;
17604;SDS011;8921;50.964;6.800;2022-08-03T13:42:28;5.47;;;2.90;;
17604;SDS011;8921;50.964;6.800;2022-08-03T13:44:59;4.60;;;2.40;;
17604;SDS011;8921;50.964;6.800;2022-08-03T13:47:27;4.33;;;1.90;;
17604;SDS011;8921;50.964;6.800;2022-08-03T13:49:55;3.30;;;1.67;;
17604;SDS011;8921;50.964;6.800;2022-08-03T13:52:23;4.73;;;1.83;;
17604;SDS011;8921;50.964;6.800;2022-08-03T13:54:51;7.50;;;2.23;;
17604;SDS011;8921;50.964;6.800;2022-08-03T13:57:20;4.83;;;2.00;;
17604;SDS011;8921;50.964;6.800;2022-08-03T13:59:48;30.77;;;3.17;;
17604;SDS011;8921;50.964;6.800;2022-08-03T14:02:16;9.53;;;2.47;;
17604;SDS011;8921;50.964;6.800;2022-08-03T14:04:45;6.40;;;2.07;;
17604;SDS011;8921;50.964;6.800;2022-08-03T14:07:13;4.27;;;2.20;;
17604;SDS011;8921;50.964;6.800;2022-08-03T14:09:41;14.57;;;2.23;;
17604;SDS011;8921;50.964;6.800;2022-08-03T14:12:10;5.20;;;1.83;;
17604;SDS011;8921;50.964;6.800;2022-08-03T14:14:38;3.53;;;1.60;;
17604;SDS011;8921;50.964;6.800;2022-08-03T14:17:06;5.90;;;2.50;;
17604;SDS011;8921;50.964;6.800;2022-08-03T14:19:34;3.80;;;2.10;;
17604;SDS011;8921;50.964;6.800;2022-08-03T14:22:03;7.27;;;2.30;;
17604;SDS011;8921;50.964;6.800;2022-08-03T14:24:31;6.03;;;2.23;;
17604;SDS011;8921;50.964;6.800;2022-08-03T14:26:59;6.40;;;2.80;;
17604;SDS011;8921;50.964;6.800;2022-08-03T14:29:28;6.60;;;1.87;;
17604;SDS011;8921;50.964;6.800;2022-08-03T14:31:56;4.20;;;1.80;;
17604;SDS011;8921;50.964;6.800;2022-08-03T14:34:24;4.20;;;1.80;;
17604;SDS011;8921;50.964;6.800;2022-08-03T14:36:53;3.70;;;2.07;;
17604;SDS011;8921;50.964;6.800;2022-08-03T14:39:21;5.07;;;2.07;;
17604;SDS011;8921;50.964;6.800;2022-08-03T14:41:49;4.97;;;1.80;;
17604;SDS011;8921;50.964;6.800;2022-08-03T14:44:17;7.70;;;1.97;;
17604;SDS011;8921;50.964;6.800;2022-08-03T14:46:46;6.90;;;2.10;;
17604;SDS011;8921;50.964;6.800;2022-08-03T14:49:14;6.57;;;1.80;;
17604;SDS011;8921;50.964;6.800;2022-08-03T14:51:42;6.77;;;2.13;;
17604;SDS011;8921;50.964;6.800;2022-08-03T14:54:10;4.37;;;2.00;;
17604;SDS011;8921;50.964;6.800;2022-08-03T14:56:39;6.17;;;2.00;;
17604;SDS011;8921;50.964;6.800;2022-08-03T14:59:07;4.87;;;2.17;;
17604;SDS011;8921;50.964;6.800;2022-08-03T15:01:35;10.97;;;2.30;;
17604;SDS011;8921;50.964;6.800;2022-08-03T15:04:04;6.07;;;1.80;;
17604;SDS011;8921;50.964;6.800;2022-08-03T15:06:32;6.97;;;2.10;;
17604;SDS011;8921;50.964;6.800;2022-08-03T15:09:00;3.53;;;1.70;;
17604;SDS011;8921;50.964;6.800;2022-08-03T15:11:29;4.03;;;2.53;;
17604;SDS011;8921;50.964;6.800;2022-08-03T15:13:57;4.17;;;1.63;;
17604;SDS011;8921;50.964;6.800;2022-08-03T15:16:25;5.67;;;1.97;;
17604;SDS011;8921;50.964;6.800;2022-08-03T15:18:53;3.90;;;1.87;;
17604;SDS011;8921;50.964;6.800;2022-08-03T15:21:22;6.53;;;1.80;;
17604;SDS011;8921;50.964;6.800;2022-08-03T15:23:50;4.80;;;2.40;;
17604;SDS011;8921;50.964;6.800;2022-08-03T15:26:19;7.77;;;2.20;;
17604;SDS011;8921;50.964;6.800;2022-08-03T15:28:47;5.70;;;1.80;;
17604;SDS011;8921;50.964;6.800;2022-08-03T15:31:19;5.70;;;1.83;;
17604;SDS011;8921;50.964;6.800;2022-08-03T15:33:43;3.03;;;1.50;;
17604;SDS011;8921;50.964;6.800;2022-08-03T15:36:11;5.07;;;2.27;;
17604;SDS011;8921;50.964;6.800;2022-08-03T15:38:40;4.10;;;1.77;;
17604;SDS011;8921;50.964;6.800;2022-08-03T15:41:08;4.53;;;2.10;;
17604;SDS011;8921;50.964;6.800;2022-08-03T15:43:36;6.93;;;1.90;;
17604;SDS011;8921;50.964;6.800;2022-08-03T15:46:05;5.37;;;2.60;;